Ranchito, Texas
Current Conditions -  °F | °C
As of 6:52 AM on Thursday 27 Nov 2014 (Local Time) from KHRL Reporting Station
Clear Clear  
Wind Chill: 47°   Ceiling: Unl
Heat Index: 47°   Visibility: 10mi
Dew Point: 46°   Wind: 3mph
Humidity: 97%   Direction: 110°ESE
Pressure: 30.37"   Gusts: NA
Location:  26.1784°N, 97.6678°W
Report Text: KHRL 271252Z 11003KT 10SM CLR 08/08 A3037 RMK AO2 SLP283 P0001 T00830078 $
Loading
Personal Weather Stations






























Interactive Weather Map New forecast layout! Learn more

10-Day Weather Forecast

Advertisements
Track Severe Weather on mobile